International Virtual Aviation Organisation

Russian Federation and Kazakhstan MCD

 

Карточка аэропорта UAOO

Внимание!
Информация на этой странице в стадии наполнения.
Если вы не увидели какой-то информации, или заметили неточность - пожалуйста сообщите нам!
Спасибо!
Команда RU-STAFF
Название аэропортаКызылорда
Название аэропорта (англ.)Kyzylorda
Превышение433 ft. (132 m.)
Координаты44°42.414', 65°35.55'
Высота перехода2074
Эшелон переходаFL40
Коды ответчика3474-3475, 7270-7273
Зона ОрВДШымкент РПИ (UAII)
Данные METARUAOO 260530Z 17004MPS 9999 OVC040CB 17/07 Q1012 R23/CLRD70 NOSIG RMK QFE747/0997
Проноз погоды (TAF)NODATA
NOTAMshow/hide NOTAM
AWOS   TABLE

Информация о ВПП

ВПП Длина ВПП (м.) Покрытие Курс ВПП Частота ILS
052700Асфальтобетон61111.1
232700Асфальтобетон241 

Диспетчерские позиции




Спутниковое изображение